Waynesburg, Ohio
Current Conditions -  °F | °C
As of 1:53 AM on Sunday 26 Oct 2014 (Local Time) from KPHD Reporting Station
Clear Clear  
Wind Chill: 53°   Ceiling: Unl
Heat Index: 53°   Visibility: 10mi
Dew Point: 32°   Wind: 5mph
Humidity: 45%   Direction: 300°WNW
Pressure: 29.84"   Gusts: NA
Location:  40.67°N, 81.26°W
Report Text: KPHD 260553Z AUTO 30004KT 10SM CLR 12/00 A2984 RMK AO2 SLP102 T01170000 10183 20117 53001
Loading
Personal Weather Stations






























Interactive Weather Map
Tropical Storm Tracking
New forecast layout! Learn more

10-Day Weather Forecast

Advertisements
Track Severe Weather on mobile